createdAt,value
2019-05-03T00:02:26.114Z,99640.13
2019-05-03T00:05:03.074Z,99638.31
2019-05-03T00:07:34.888Z,99645.95
2019-05-03T00:10:08.753Z,99646.66
2019-05-03T00:12:42.174Z,99636.98
2019-05-03T00:15:26.570Z,99641.95
2019-05-03T00:17:59.361Z,99644.72
2019-05-03T00:20:32.670Z,99656.36
2019-05-03T00:23:05.024Z,99655.28
2019-05-03T00:25:36.865Z,99676.70
2019-05-03T00:28:08.600Z,99703.97
2019-05-03T00:30:42.269Z,99694.64
2019-05-03T00:33:13.850Z,99708.28
2019-05-03T00:35:47.319Z,99704.92
2019-05-03T00:38:18.965Z,99715.45
2019-05-03T00:40:52.378Z,99723.08
2019-05-03T00:43:24.101Z,99722.97
2019-05-03T00:45:55.823Z,99726.95
2019-05-03T00:48:27.552Z,99721.88
2019-05-03T00:50:59.278Z,99721.73
2019-05-03T00:53:31.748Z,99724.16
2019-05-03T00:56:03.692Z,99714.72
2019-05-03T00:58:37.170Z,99718.08
2019-05-03T01:01:08.953Z,99716.39
2019-05-03T01:03:41.849Z,99723.77
2019-05-03T01:06:13.601Z,99722.92
2019-05-03T01:08:45.305Z,99726.88
2019-05-03T01:11:17.032Z,99724.84
2019-05-03T01:13:51.993Z,99726.25
2019-05-03T01:16:24.960Z,99737.13
2019-05-03T01:18:56.672Z,99739.91
2019-05-03T01:21:28.394Z,99738.34
2019-05-03T01:24:01.672Z,99737.25
2019-05-03T01:26:33.423Z,99746.91
2019-05-03T01:29:05.523Z,99740.63
2019-05-03T01:31:37.240Z,99736.52
2019-05-03T01:34:12.523Z,99741.11
2019-05-03T01:36:44.143Z,99725.89
2019-05-03T01:39:15.944Z,99724.31
2019-05-03T01:41:47.663Z,99723.27
2019-05-03T01:44:19.509Z,99725.53
2019-05-03T01:46:52.855Z,99722.51
2019-05-03T01:49:29.037Z,99727.25
2019-05-03T01:52:06.144Z,99726.77
2019-05-03T01:54:39.029Z,99734.02
2019-05-03T01:57:11.604Z,99736.19
2019-05-03T01:59:43.540Z,99735.59
2019-05-03T02:02:34.166Z,99739.70
2019-05-03T02:05:19.755Z,99737.28
2019-05-03T02:07:51.989Z,99742.23
2019-05-03T02:10:23.762Z,99755.41
2019-05-03T02:12:55.778Z,99761.20
2019-05-03T02:15:27.599Z,99756.38
2019-05-03T02:17:59.316Z,99753.56
2019-05-03T02:20:32.406Z,99757.91
2019-05-03T02:23:04.898Z,99758.75
2019-05-03T02:25:36.779Z,99765.64
2019-05-03T02:28:08.489Z,99747.24
2019-05-03T02:30:43.672Z,99748.97
2019-05-03T02:33:13.898Z,99743.25
2019-05-03T02:35:45.618Z,99745.67
2019-05-03T02:38:17.337Z,99752.19
2019-05-03T02:40:49.155Z,99755.45
2019-05-03T02:43:26.002Z,99750.50
2019-05-03T02:46:02.300Z,99754.23
2019-05-03T02:48:36.237Z,99749.50
2019-05-03T02:51:07.210Z,99750.02
2019-05-03T02:53:39.023Z,99759.19
2019-05-03T02:56:18.287Z,99755.77
2019-05-03T02:58:46.076Z,99757.70
2019-05-03T03:01:18.539Z,99757.34
2019-05-03T03:03:51.494Z,99749.97
2019-05-03T03:06:26.825Z,99752.98
2019-05-03T03:09:00.282Z,99753.59
2019-05-03T03:11:37.481Z,99765.78
2019-05-03T03:14:16.461Z,99755.41
2019-05-03T03:16:50.892Z,99753.59
2019-05-03T03:19:26.160Z,99765.78
2019-05-03T03:22:01.268Z,99758.78
2019-05-03T03:24:36.131Z,99766.63
2019-05-03T03:27:12.228Z,99773.39
2019-05-03T03:29:49.226Z,99775.66
2019-05-03T03:32:29.779Z,99773.39
2019-05-03T03:35:20.627Z,99778.22
2019-05-03T03:37:51.421Z,99784.02
2019-05-03T03:40:25.398Z,99775.77
2019-05-03T03:43:00.590Z,99790.66
2019-05-03T03:45:36.205Z,99795.69
2019-05-03T03:48:11.036Z,99786.88
2019-05-03T03:50:49.088Z,99807.53
2019-05-03T03:53:26.163Z,99811.91
2019-05-03T03:55:57.902Z,99815.73
2019-05-03T03:58:30.494Z,99822.38
2019-05-03T04:01:02.679Z,99824.78
2019-05-03T04:03:36.234Z,99826.71
2019-05-03T04:06:08.331Z,99829.48
2019-05-03T04:08:45.130Z,99837.45
2019-05-03T04:11:16.581Z,99837.33
2019-05-03T04:13:48.809Z,99844.58
2019-05-03T04:16:21.966Z,99848.63
2019-05-03T04:18:58.408Z,99846.30
2019-05-03T04:21:30.113Z,99847.47
2019-05-03T04:24:02.204Z,99857.92
2019-05-03T04:26:35.782Z,99859.30
2019-05-03T04:29:07.693Z,99858.70
2019-05-03T04:31:42.282Z,99859.89
2019-05-03T04:34:16.215Z,99869.41
2019-05-03T04:36:47.302Z,99870.52
2019-05-03T04:39:20.242Z,99881.67
2019-05-03T04:41:52.305Z,99886.56
2019-05-03T04:44:26.054Z,99883.31
2019-05-03T04:46:58.409Z,99893.43
2019-05-03T04:49:30.427Z,99890.41
2019-05-03T04:52:02.146Z,99893.43
2019-05-03T04:54:41.293Z,99894.28
2019-05-03T04:57:15.817Z,99906.77
2019-05-03T04:59:46.356Z,99905.41
2019-05-03T05:02:18.056Z,99907.60
2019-05-03T05:04:49.898Z,99909.54
2019-05-03T05:07:21.615Z,99910.36
2019-05-03T05:09:56.244Z,99911.48
2019-05-03T05:12:27.577Z,99914.34
2019-05-03T05:14:59.305Z,99920.86
2019-05-03T05:17:35.348Z,99911.70
2019-05-03T05:20:09.350Z,99922.93
2019-05-03T05:22:41.061Z,99932.77
2019-05-03T05:25:14.887Z,99929.70
2019-05-03T05:28:00.451Z,99938.25
2019-05-03T05:30:32.751Z,99940.66
2019-05-03T05:33:05.436Z,99942.39
2019-05-03T05:35:37.375Z,99945.43
2019-05-03T05:38:09.107Z,99946.27
2019-05-03T05:40:40.844Z,99948.81
2019-05-03T05:43:12.664Z,99965.81
2019-05-03T05:45:44.917Z,99964.75
2019-05-03T05:48:18.449Z,99966.05
2019-05-03T05:50:50.040Z,99967.50
2019-05-03T05:53:21.856Z,99968.86
2019-05-03T05:56:11.412Z,99972.17
2019-05-03T05:58:55.363Z,99976.34
2019-05-03T06:01:29.418Z,99986.06
2019-05-03T06:04:01.152Z,99987.20
2019-05-03T06:06:34.889Z,99991.77
2019-05-03T06:09:15.338Z,99992.14
2019-05-03T06:11:51.692Z,99996.45
2019-05-03T08:37:18.615Z,100089.19
2019-05-03T08:39:44.908Z,100090.06
2019-05-03T08:42:28.549Z,100093.73
2019-05-03T08:44:57.543Z,100088.03
2019-05-03T08:47:34.396Z,100090.34
2019-05-03T08:50:08.066Z,100081.94
2019-05-03T08:52:39.714Z,100085.53
2019-05-03T08:55:15.990Z,100086.03
2019-05-03T08:57:50.191Z,100074.97
2019-05-03T09:00:32.936Z,100080.11
2019-05-03T09:03:05.920Z,100086.43
2019-05-03T09:05:41.922Z,100081.72
2019-05-03T09:08:26.247Z,100086.89
2019-05-03T09:11:02.198Z,100097.16
2019-05-03T09:13:52.696Z,100082.52
2019-05-03T09:16:28.976Z,100094.33
2019-05-03T09:19:00.843Z,100086.90
2019-05-03T09:21:34.609Z,100100.74
2019-05-03T09:24:07.700Z,100100.16
2019-05-03T09:26:39.238Z,100105.69
2019-05-03T09:29:10.969Z,100106.16
2019-05-03T09:31:44.629Z,100101.48
2019-05-03T09:34:16.340Z,100094.52
2019-05-03T09:36:48.103Z,100097.10
2019-05-03T09:39:19.868Z,100098.80
2019-05-03T09:41:51.595Z,100104.28
2019-05-03T09:44:31.159Z,100093.14
2019-05-03T09:47:05.612Z,100093.44
2019-05-03T09:49:42.477Z,100105.34
2019-05-03T09:52:18.339Z,100098.50
2019-05-03T09:54:57.352Z,100097.59
2019-05-03T09:57:30.218Z,100099.81
2019-05-03T10:00:07.790Z,100089.88
2019-05-03T10:02:40.666Z,100086.66
2019-05-03T10:05:15.452Z,100081.39
2019-05-03T10:07:48.015Z,100086.80
2019-05-03T10:10:19.719Z,100057.92
2019-05-03T10:12:58.849Z,100080.84
2019-05-03T10:15:44.990Z,100072.61
2019-05-03T10:18:22.418Z,100083.91
2019-05-03T10:20:56.157Z,100087.27
2019-05-03T10:23:35.975Z,100075.50
2019-05-03T10:26:08.671Z,100067.97
2019-05-03T10:28:41.592Z,100080.52
2019-05-03T10:31:14.651Z,100081.77
2019-05-03T10:33:51.201Z,100077.69
2019-05-03T10:36:26.809Z,100080.00
2019-05-03T10:38:58.468Z,100084.00
2019-05-03T10:41:30.206Z,100083.20
2019-05-03T10:44:02.032Z,100072.52
2019-05-03T10:46:35.708Z,100085.28
2019-05-03T10:49:07.340Z,100078.38
2019-05-03T10:51:41.324Z,100082.22
2019-05-03T10:54:14.651Z,100081.82
2019-05-03T10:56:56.694Z,100074.86
2019-05-03T10:59:28.540Z,100079.33
2019-05-03T11:02:07.815Z,100090.45
2019-05-03T11:04:39.460Z,100088.50
2019-05-03T11:07:11.230Z,100083.45
2019-05-03T11:09:49.698Z,100087.30
2019-05-03T11:12:17.826Z,100088.03
2019-05-03T11:14:49.896Z,100076.23
2019-05-03T11:17:21.733Z,100087.52
2019-05-03T11:19:54.736Z,100085.89
2019-05-03T11:22:26.943Z,100080.75
2019-05-03T11:24:58.692Z,100070.31
2019-05-03T11:27:41.211Z,100073.69
2019-05-03T11:30:15.737Z,100088.30
2019-05-03T11:32:51.978Z,100087.53
2019-05-03T11:35:25.163Z,100080.98
2019-05-03T11:37:58.454Z,100080.45
2019-05-03T11:40:30.128Z,100088.34
2019-05-03T11:43:04.659Z,100086.19
2019-05-03T11:45:36.450Z,100079.34
2019-05-03T11:48:08.198Z,100093.03
2019-05-03T11:50:39.968Z,100083.83
2019-05-03T11:53:11.728Z,100081.20
2019-05-03T11:55:46.254Z,100078.05
2019-05-03T11:58:25.790Z,100075.50
2019-05-03T12:01:15.325Z,100069.27
2019-05-03T12:03:45.625Z,100086.92
2019-05-03T12:06:17.251Z,100091.77
2019-05-03T12:08:48.992Z,100078.16
2019-05-03T12:11:20.762Z,100079.78
2019-05-03T12:14:02.417Z,100081.88
2019-05-03T12:17:07.768Z,100083.28
2019-05-03T12:19:15.692Z,100084.27
2019-05-03T12:21:37.580Z,100087.77
2019-05-03T12:24:15.216Z,100089.80
2019-05-03T12:26:47.008Z,100083.09
2019-05-03T12:29:18.844Z,100075.53
2019-05-03T12:31:50.495Z,100078.78
2019-05-03T12:34:22.222Z,100084.05
2019-05-03T12:36:53.959Z,100080.52
2019-05-03T12:39:30.127Z,100079.38
2019-05-03T12:42:02.366Z,100079.02
2019-05-03T12:44:35.452Z,100083.20
2019-05-03T12:47:07.141Z,100080.97
2019-05-03T12:49:38.980Z,100075.98
2019-05-03T12:52:11.239Z,100077.48
2019-05-03T12:54:44.641Z,100077.89
2019-05-03T12:57:16.400Z,100070.91
2019-05-03T12:59:52.706Z,100074.19
2019-05-03T13:02:41.215Z,100078.73
2019-05-03T13:05:12.999Z,100082.70
2019-05-03T13:07:46.183Z,100070.50
2019-05-03T13:10:22.339Z,100070.09
2019-05-03T13:12:53.353Z,100070.23
2019-05-03T13:15:24.576Z,100076.60
2019-05-03T13:17:56.298Z,100073.49
2019-05-03T13:20:28.721Z,100069.90
2019-05-03T13:23:00.797Z,100071.76
2019-05-03T13:25:32.427Z,100067.98
2019-05-03T13:28:05.491Z,100072.73
2019-05-03T13:30:37.499Z,100063.56
2019-05-03T13:33:09.270Z,100051.17
2019-05-03T13:35:41.043Z,100056.39
2019-05-03T13:38:12.947Z,100048.48
2019-05-03T13:40:45.756Z,100050.47
2019-05-03T13:43:17.362Z,100047.59
2019-05-03T13:45:52.127Z,100053.87
2019-05-03T13:48:26.268Z,100047.95
2019-05-03T13:50:57.652Z,100049.78
2019-05-03T13:53:29.486Z,100047.64
2019-05-03T13:56:01.223Z,100037.28
2019-05-03T13:58:32.935Z,100050.83
2019-05-03T14:01:05.694Z,100049.98
2019-05-03T14:03:38.592Z,100049.91
2019-05-03T14:06:12.352Z,100048.59
2019-05-03T14:08:45.481Z,100036.56
2019-05-03T14:11:21.097Z,100040.78
2019-05-03T14:14:01.837Z,100040.87
2019-05-03T14:16:33.456Z,100039.83
2019-05-03T14:19:09.899Z,100044.10
2019-05-03T14:21:47.597Z,100045.21
2019-05-03T14:24:19.431Z,100031.83
2019-05-03T14:26:51.173Z,100049.22
2019-05-03T14:29:25.223Z,100042.88
2019-05-03T14:31:56.543Z,100044.99
2019-05-03T14:34:28.283Z,100047.20
2019-05-03T14:37:00.023Z,100049.31
2019-05-03T14:39:31.767Z,100046.76
2019-05-03T14:42:04.857Z,100049.86
2019-05-03T14:44:37.443Z,100037.64
2019-05-03T14:47:11.364Z,100038.73
2019-05-03T14:49:47.973Z,100033.49
2019-05-03T14:52:25.134Z,100037.34
2019-05-03T14:55:06.473Z,100032.23
2019-05-03T14:57:42.081Z,100040.37
2019-05-03T15:00:18.969Z,100037.12
2019-05-03T15:02:55.395Z,100037.37
2019-05-03T15:05:31.702Z,100035.55
2019-05-03T15:08:15.011Z,100036.55
2019-05-03T15:10:47.711Z,100032.89
2019-05-03T15:13:19.429Z,100033.49
2019-05-03T15:15:51.180Z,100029.01
2019-05-03T15:18:22.924Z,100040.95
2019-05-03T15:20:55.546Z,100044.08
2019-05-03T15:23:28.313Z,100035.27
2019-05-03T15:25:59.951Z,100033.94
2019-05-03T15:28:31.955Z,100035.82
2019-05-03T15:31:09.607Z,100054.83
2019-05-03T15:33:41.281Z,100043.34
2019-05-03T15:36:15.467Z,100048.86
2019-05-03T15:38:48.844Z,100053.30
2019-05-03T15:41:25.134Z,100050.44
2019-05-03T15:43:59.141Z,100046.20
2019-05-03T15:46:36.720Z,100051.98
2019-05-03T15:49:08.570Z,100056.06
2019-05-03T15:51:40.303Z,100059.33
2019-05-03T15:54:15.755Z,100057.69
2019-05-03T15:56:49.268Z,100055.50
2019-05-03T15:59:21.162Z,100062.44
2019-05-03T16:01:52.911Z,100059.81
2019-05-03T16:04:25.131Z,100054.55
2019-05-03T16:06:57.300Z,100051.11
2019-05-03T16:09:29.223Z,100056.97
2019-05-03T16:12:00.854Z,100059.81
2019-05-03T16:14:32.621Z,100067.38
2019-05-03T16:17:04.532Z,100058.80
2019-05-03T16:19:36.426Z,100067.48
2019-05-03T16:22:08.172Z,100061.88
2019-05-03T16:24:39.907Z,100060.30
2019-05-03T16:27:19.004Z,100064.41
2019-05-03T16:29:50.844Z,100058.05
2019-05-03T16:32:22.587Z,100061.62
2019-05-03T16:34:54.989Z,100069.42
2019-05-03T16:37:26.753Z,100064.72
2019-05-03T16:39:58.670Z,100069.84
2019-05-03T16:42:30.532Z,100078.07
2019-05-03T16:45:02.266Z,100067.25
2019-05-03T16:47:35.449Z,100072.86
2019-05-03T16:50:08.242Z,100071.44
2019-05-03T16:52:40.069Z,100071.84
2019-05-03T16:55:12.101Z,100071.48
2019-05-03T16:57:44.319Z,100072.46
2019-05-03T17:00:18.082Z,100073.80
2019-05-03T17:02:49.835Z,100078.80
2019-05-03T17:05:39.488Z,100071.89
2019-05-03T17:08:15.620Z,100076.43
2019-05-03T17:10:51.757Z,100085.41
2019-05-03T17:13:25.161Z,100086.03
2019-05-03T17:15:56.847Z,100089.32
2019-05-03T17:18:28.693Z,100087.11
2019-05-03T17:21:00.441Z,100084.11
2019-05-03T17:23:32.167Z,100083.27
2019-05-03T17:26:03.919Z,100090.06
2019-05-03T17:28:35.650Z,100087.77
2019-05-03T17:31:07.490Z,100081.23
2019-05-03T17:33:50.469Z,100082.82
2019-05-03T17:36:12.789Z,100089.13
2019-05-03T17:38:45.608Z,100090.46
2019-05-03T17:41:34.718Z,100088.41
2019-05-03T17:44:09.797Z,100088.91
2019-05-03T17:46:41.647Z,100092.92
2019-05-03T17:49:14.728Z,100095.09
2019-05-03T17:51:49.404Z,100094.38
2019-05-03T17:54:27.241Z,100097.03
2019-05-03T17:57:04.559Z,100096.66
2019-05-03T17:59:41.580Z,100094.35
2019-05-03T18:02:15.420Z,100095.21
2019-05-03T18:05:05.354Z,100099.19
2019-05-03T18:07:54.924Z,100100.89
2019-05-03T18:10:28.147Z,100096.05
2019-05-03T18:12:59.804Z,100104.75
2019-05-03T18:15:31.459Z,100107.17
2019-05-03T18:18:05.135Z,100114.41
2019-05-03T18:20:38.003Z,100116.34
2019-05-03T18:23:09.899Z,100114.05
2019-05-03T18:25:41.612Z,100112.44
2019-05-03T18:28:14.981Z,100110.63
2019-05-03T18:30:46.761Z,100119.30
2019-05-03T18:33:18.670Z,100111.11
2019-05-03T18:35:50.457Z,100112.31
2019-05-03T18:38:25.210Z,100113.36
2019-05-03T18:40:59.336Z,100115.37
2019-05-03T18:43:37.585Z,100117.12
2019-05-03T18:46:28.063Z,100125.70
2019-05-03T18:49:04.482Z,100128.34
2019-05-03T18:51:37.516Z,100126.60
2019-05-03T18:54:15.625Z,100137.17
2019-05-03T18:56:48.787Z,100133.27
2019-05-03T18:59:22.186Z,100140.57
2019-05-03T19:01:56.292Z,100137.00
2019-05-03T19:04:37.337Z,100135.76
2019-05-03T19:07:10.451Z,100138.36
2019-05-03T19:09:51.188Z,100141.72
2019-05-03T19:12:28.889Z,100135.30
2019-05-03T19:15:05.182Z,100135.59
2019-05-03T19:17:54.712Z,100141.98
2019-05-03T19:20:30.211Z,100135.56
2019-05-03T19:23:02.224Z,100131.80
2019-05-03T19:25:45.818Z,100132.58
2019-05-03T19:28:08.215Z,100143.06
2019-05-03T19:30:44.417Z,100144.59
2019-05-03T19:33:16.305Z,100139.12
2019-05-03T19:35:48.217Z,100144.44
2019-05-03T19:38:19.850Z,100143.95
2019-05-03T19:40:54.714Z,100140.34
2019-05-03T19:43:27.028Z,100137.57
2019-05-03T19:46:00.670Z,100134.55
2019-05-03T19:48:34.787Z,100130.92
2019-05-03T19:51:09.356Z,100132.84
2019-05-03T19:53:47.419Z,100131.84
2019-05-03T19:56:19.915Z,100125.91
2019-05-03T19:58:55.343Z,100123.66
2019-05-03T20:01:51.292Z,100127.89
2019-05-03T20:04:33.086Z,100124.23
2019-05-03T20:07:21.683Z,100125.48
2019-05-03T20:09:54.477Z,100130.48
2019-05-03T20:12:28.052Z,100129.19
2019-05-03T20:15:01.426Z,100129.55
2019-05-03T20:17:54.010Z,100129.98
2019-05-03T20:20:10.165Z,100130.38
2019-05-03T20:22:45.097Z,100128.52
2019-05-03T20:25:17.673Z,100139.50
2019-05-03T20:27:49.366Z,100137.27
2019-05-03T20:30:23.151Z,100128.00
2019-05-03T20:33:03.872Z,100131.13
2019-05-03T20:35:45.233Z,100134.27
2019-05-03T20:38:17.354Z,100126.73
2019-05-03T20:40:49.423Z,100122.76
2019-05-03T20:43:39.183Z,100128.28
2019-05-03T20:46:10.799Z,100126.24
2019-05-03T20:48:44.825Z,100124.65
2019-05-03T20:51:16.997Z,100128.36
2019-05-03T20:53:48.781Z,100128.73
2019-05-03T20:56:21.876Z,100121.92
2019-05-03T20:58:54.993Z,100128.95
2019-05-03T21:01:45.934Z,100126.77
2019-05-03T21:04:21.085Z,100122.69
2019-05-03T21:06:55.181Z,100126.11
2019-05-03T21:09:29.077Z,100126.78
2019-05-03T21:12:01.780Z,100121.75
2019-05-03T21:14:35.026Z,100125.34
2019-05-03T21:17:20.182Z,100125.92
2019-05-03T21:19:55.215Z,100122.05
2019-05-03T21:22:29.980Z,100119.69
2019-05-03T21:25:10.310Z,100119.58
2019-05-03T21:27:44.829Z,100120.72
2019-05-03T21:30:17.856Z,100117.38
2019-05-03T21:33:05.275Z,100120.22
2019-05-03T21:35:41.563Z,100113.52
2019-05-03T21:38:10.580Z,100113.40
2019-05-03T21:40:42.342Z,100113.59
2019-05-03T21:43:15.246Z,100114.06
2019-05-03T21:45:51.862Z,100113.69
2019-05-03T21:48:28.185Z,100115.27
2019-05-03T21:50:59.837Z,100118.48
2019-05-03T21:53:31.582Z,100117.26
2019-05-03T21:56:04.082Z,100114.61
2019-05-03T21:58:35.708Z,100114.98
2019-05-03T22:01:15.664Z,100112.63
2019-05-03T22:03:44.752Z,100112.46
2019-05-03T22:06:17.191Z,100113.40
2019-05-03T22:08:48.907Z,100117.18
2019-05-03T22:11:20.641Z,100118.91
2019-05-03T22:13:54.253Z,100117.87
2019-05-03T22:16:29.201Z,100115.03
2019-05-03T22:19:00.823Z,100121.55
2019-05-03T22:21:36.867Z,100120.81
2019-05-03T22:24:20.128Z,100113.05
2019-05-03T22:26:53.583Z,100112.28
2019-05-03T22:29:25.964Z,100117.42
2019-05-03T22:31:57.784Z,100121.67
2019-05-03T22:34:29.555Z,100115.89
2019-05-03T22:37:01.287Z,100124.59
2019-05-03T22:39:33.009Z,100115.42
2019-05-03T22:42:05.115Z,100114.00
2019-05-03T22:44:36.862Z,100120.62
2019-05-03T22:47:09.835Z,100121.38
2019-05-03T22:49:41.722Z,100116.17
2019-05-03T22:52:15.275Z,100117.22
2019-05-03T22:54:48.319Z,100107.95
2019-05-03T22:57:19.956Z,100103.22
2019-05-03T22:59:51.694Z,100100.73
2019-05-03T23:02:24.852Z,100100.73
2019-05-03T23:04:57.109Z,100098.87
2019-05-03T23:07:28.847Z,100094.52
2019-05-03T23:10:00.577Z,100088.53
2019-05-03T23:12:34.695Z,100086.16
2019-05-03T23:15:11.387Z,100082.50
2019-05-03T23:17:45.020Z,100084.10
2019-05-03T23:20:25.448Z,100081.83
2019-05-03T23:22:57.288Z,100081.63
2019-05-03T23:25:30.720Z,100078.88
2019-05-03T23:28:02.687Z,100075.28
2019-05-03T23:30:36.625Z,100069.98
2019-05-03T23:33:08.553Z,100072.56
2019-05-03T23:35:40.288Z,100071.98
2019-05-03T23:38:12.026Z,100075.20
2019-05-03T23:40:44.760Z,100081.83
2019-05-03T23:43:16.474Z,100082.02
2019-05-03T23:45:49.374Z,100073.70
2019-05-03T23:48:20.921Z,100079.95
2019-05-03T23:50:52.751Z,100075.30
2019-05-03T23:53:24.476Z,100078.04
2019-05-03T23:55:58.912Z,100072.46
2019-05-03T23:58:30.759Z,100069.54
